Map

Track Data

SID SEASON NUMBER BASIN SUBBASIN NAME ISO_TIME NATURE LAT LON WMO_WIND WMO_PRES WMO_AGENCY TRACK_TYPE DIST2LAND LANDFALL IFLAG USA_AGENCY USA_ATCF_ID USA_LAT USA_LON USA_RECORD USA_STATUS USA_WIND USA_PRES USA_SSHS USA_R34_NE USA_R34_SE USA_R34_SW USA_R34_NW USA_R50_NE USA_R50_SE USA_R50_SW USA_R50_NW USA_R64_NE USA_R64_SE USA_R64_SW USA_R64_NW USA_POCI USA_ROCI USA_RMW USA_EYE TOKYO_LAT TOKYO_LON TOKYO_GRADE TOKYO_WIND TOKYO_PRES TOKYO_R50_DIR TOKYO_R50_LONG TOKYO_R50_SHORT TOKYO_R30_DIR TOKYO_R30_LONG TOKYO_R30_SHORT TOKYO_LAND CMA_LAT CMA_LON CMA_CAT CMA_WIND CMA_PRES HKO_LAT HKO_LON HKO_CAT HKO_WIND HKO_PRES NEWDELHI_LAT NEWDELHI_LON NEWDELHI_GRADE NEWDELHI_WIND NEWDELHI_PRES NEWDELHI_CI NEWDELHI_DP NEWDELHI_POCI REUNION_LAT REUNION_LON REUNION_TYPE REUNION_WIND REUNION_PRES REUNION_TNUM REUNION_CI REUNION_RMW REUNION_R34_NE REUNION_R34_SE REUNION_R34_SW REUNION_R34_NW REUNION_R50_NE REUNION_R50_SE REUNION_R50_SW REUNION_R50_NW REUNION_R64_NE REUNION_R64_SE REUNION_R64_SW REUNION_R64_NW BOM_LAT BOM_LON BOM_TYPE BOM_WIND BOM_PRES BOM_TNUM BOM_CI BOM_RMW BOM_R34_NE BOM_R34_SE BOM_R34_SW BOM_R34_NW BOM_R50_NE BOM_R50_SE BOM_R50_SW BOM_R50_NW BOM_R64_NE BOM_R64_SE BOM_R64_SW BOM_R64_NW BOM_ROCI BOM_POCI BOM_EYE BOM_POS_METHOD BOM_PRES_METHOD NADI_LAT NADI_LON NADI_CAT NADI_WIND NADI_PRES WELLINGTON_LAT WELLINGTON_LON WELLINGTON_WIND WELLINGTON_PRES DS824_LAT DS824_LON DS824_STAGE DS824_WIND DS824_PRES TD9636_LAT TD9636_LON TD9636_STAGE TD9636_WIND TD9636_PRES TD9635_LAT TD9635_LON TD9635_WIND TD9635_PRES TD9635_ROCI NEUMANN_LAT NEUMANN_LON NEUMANN_CLASS NEUMANN_WIND NEUMANN_PRES MLC_LAT MLC_LON MLC_CLASS MLC_WIND MLC_PRES USA_GUST BOM_GUST BOM_GUST_PER REUNION_GUST REUNION_GUST_PER USA_SEAHGT USA_SEARAD_NE USA_SEARAD_SE USA_SEARAD_SW USA_SEARAD_NW STORM_SPEED STORM_DIR
1951332N14256 1951 91 EP MM NOT_NAMED 1951-11-27 12:00:00 TS 14.0000 -104.000 45 hurdat_epa main 472 461 O________OO___ hurdat_epa EP091951 14.0000 -104.000 TS 45 0 14.0000 -104.000 TC 45 14.0000 -104.000 2 11 296
1951332N14256 1951 91 EP MM NOT_NAMED 1951-11-27 15:00:00 TS 14.2439 -104.506 main 468 450 P________PP___ EP091951 14.2452 -104.507 TS 45 0 14.2452 -104.507 TC 45 14.2384 -104.503 2 11 297
1951332N14256 1951 91 EP MM NOT_NAMED 1951-11-27 18:00:00 TS 14.4982 -104.999 45 hurdat_epa main 454 440 O________OP___ hurdat_epa EP091951 14.5000 -105.000 TS 45 0 14.5000 -105.000 TC 45 14.4910 -104.995 2 11 300
1951332N14256 1951 91 EP MM NOT_NAMED 1951-11-27 21:00:00 TS 14.7765 -105.465 main 445 437 P________PP___ EP091951 14.7774 -105.465 TS 45 0 14.7774 -105.465 TC 45 14.7731 -105.464 2 11 305
1951332N14256 1951 91 EP MM NOT_NAMED 1951-11-28 00:00:00 TS 15.1000 -105.900 45 hurdat_epa main 440 432 O________OO___ hurdat_epa EP091951 15.1000 -105.900 TS 45 0 15.1000 -105.900 TC 45 15.1000 -105.900 2 11 311
1951332N14256 1951 91 EP MM NOT_NAMED 1951-11-28 03:00:00 TS 15.4840 -106.322 main 432 420 P________PP___ EP091951 15.4850 -106.330 TS 45 0 15.4850 -106.330 TC 45 15.4800 -106.292 2 11 316
1951332N14256 1951 91 EP MM NOT_NAMED 1951-11-28 06:00:00 TS 15.8984 -106.688 45 hurdat_epa main 420 393 O________OP___ hurdat_epa EP091951 15.9000 -106.700 TS 45 0 15.9000 -106.700 TC 45 15.8922 -106.640 2 10 323
1951332N14256 1951 91 EP MM NOT_NAMED 1951-11-28 09:00:00 TS 16.3136 -106.973 main 399 377 P________PP___ EP091951 16.3149 -106.980 TS 45 0 16.3149 -106.980 TC 45 16.3083 -106.942 2 9 329
1951332N14256 1951 91 EP MM NOT_NAMED 1951-11-28 12:00:00 TS 16.7000 -107.200 45 hurdat_epa main 377 368 O________OO___ hurdat_epa EP091951 16.7000 -107.200 TS 45 0 16.7000 -107.200 TC 45 16.7000 -107.200 2 8 329
1951332N14256 1951 91 EP MM NOT_NAMED 1951-11-28 15:00:00 TS 17.0136 -107.417 main 368 360 P________PP___ EP091951 17.0150 -107.415 TS 45 0 17.0150 -107.415 TC 45 17.0082 -107.423 2 7 327
1951332N14256 1951 91 EP MM NOT_NAMED 1951-11-28 18:00:00 TS 17.2984 -107.601 45 hurdat_epa main 361 345 O________OP___ hurdat_epa EP091951 17.3000 -107.600 TS 45 0 17.3000 -107.600 TC 45 17.2922 -107.604 2 7 330
1951332N14256 1951 91 EP MM NOT_NAMED 1951-11-28 21:00:00 TS 17.5840 -107.758 main 352 338 P________PP___ EP091951 17.5850 -107.758 TS 45 0 17.5850 -107.758 TC 45 17.5801 -107.757 2 7 335
1951332N14256 1951 91 EP MM NOT_NAMED 1951-11-29 00:00:00 TS 17.9000 -107.900 45 hurdat_epa main 339 324 O________OO___ hurdat_epa EP091951 17.9000 -107.900 TS 45 0 17.9000 -107.900 TC 45 17.9000 -107.900 2 7 338
1951332N14256 1951 91 EP MM NOT_NAMED 1951-11-29 03:00:00 TS 18.2725 -108.053 main 332 318 P________PP___ EP091951 18.2775 -108.050 TS 45 0 18.2775 -108.050 TC 45 18.2525 -108.066 2 8 340
1951332N14256 1951 91 EP MM NOT_NAMED 1951-11-29 06:00:00 TS 18.6890 -108.205 45 hurdat_epa main 318 308 O________OP___ hurdat_epa EP091951 18.7000 -108.200 TS 45 0 18.7000 -108.200 TC 45 18.6451 -108.223 2 9 341
1951332N14256 1951 91 EP MM NOT_NAMED 1951-11-29 09:00:00 TS 19.1080 -108.354 main 317 303 P________PP___ EP091951 19.1125 -108.350 TS 45 0 19.1125 -108.350 TC 45 19.0901 -108.369 2 10 343
1951332N14256 1951 91 EP MM NOT_NAMED 1951-11-29 12:00:00 TS 19.6000 -108.500 45 hurdat_epa main 305 299 O________OO___ hurdat_epa EP091951 19.6000 -108.500 TS 45 0 19.6000 -108.500 TC 45 19.6000 -108.500 2 12 346
1951332N14256 1951 91 EP MM NOT_NAMED 1951-11-29 15:00:00 TS 20.2196 -108.658 main 313 246 P________PP___ EP091951 20.2200 -108.665 TS 45 0 20.2200 -108.665 TC 45 20.2178 -108.630 2 13 348
1951332N14256 1951 91 EP MM NOT_NAMED 1951-11-29 18:00:00 TS 20.8985 -108.789 45 hurdat_epa main 246 181 O________OP___ hurdat_epa EP091951 20.9000 -108.800 TS 45 0 20.9000 -108.800 TC 45 20.8925 -108.744 2 14 352
1951332N14256 1951 91 EP MM NOT_NAMED 1951-11-29 21:00:00 TS 21.5782 -108.865 main 172 121 P________PP___ EP091951 21.5800 -108.873 TS 45 0 21.5800 -108.873 TC 45 21.5710 -108.836 2 13 355
1951332N14256 1951 91 EP MM NOT_NAMED 1951-11-30 00:00:00 TS 22.2000 -108.900 45 hurdat_epa main 121 83 O________OO___ hurdat_epa EP091951 22.2000 -108.900 TS 45 0 22.2000 -108.900 TC 45 22.2000 -108.900 2 11 358
1951332N14256 1951 91 EP MM NOT_NAMED 1951-11-30 03:00:00 TS 22.6919 -108.912 main 83 61 P________PP___ EP091951 22.6800 -108.908 TS 45 0 22.6800 -108.908 TC 45 22.7396 -108.931 2 9 0
1951332N14256 1951 91 EP MM NOT_NAMED 1951-11-30 06:00:00 TS 23.1205 -108.907 45 hurdat_epa main 61 51 O________OP___ hurdat_epa EP091951 23.1000 -108.900 TS 45 0 23.1000 -108.900 TC 45 23.2024 -108.936 2 9 2
1951332N14256 1951 91 EP MM NOT_NAMED 1951-11-30 09:00:00 TS 23.5548 -108.902 main 55 55 P________PP___ EP091951 23.5400 -108.897 TS 45 0 23.5400 -108.897 TC 45 23.6140 -108.922 2 9 0
1951332N14256 1951 91 EP MM NOT_NAMED 1951-11-30 12:00:00 TS 24.0000 -108.900 45 hurdat_epa main 75 O________OO___ hurdat_epa EP091951 24.0000 -108.900 TS 45 0 24.0000 -108.900 TC 45 24.0000 -108.900 2 9 3

About IBTrACS Database

This database is a web-friendly format of International Best Track Archive for Climate Stewardship (IBTrACS), a global best track data archive curated by NOAA dating back to 1842.

Updated: 2021-12-03